Soaring Guidance
Issued by NWS Reno, NV

Home | Current Version | Previous Version | Text Only | Print | Product List | Glossary On
Versions: 1 2 3 4 5 6 7 8 9 10 11 12 13
319
UXUS97 KREV 281359
SRGREV

SOARING FORECAST
NATIONAL WEATHER SERVICE - RENO NV
700 AM PDT THU APR 28 2016

THIS SOARING FORECAST IS FOR THE EASTERN SIERRA AND WESTERN NEVADA
WITH SPECIFIC INDICES FOR THE GREATER RENO AREA.

THIS FORECAST IS PREPARED DAILY BY 700 AM AND IS NOT UPDATED.

FOR CURRENT FLIGHT CONDITIONS...FORECASTS...AND ADVISORIES...ACCESS
YOUR LOCAL BRIEFING OUTLET OR FLIGHT SERVICE STATION.

*******************************************************************
FORECASTED LOCAL INDICES FOR RENO:        TODAY     YESTERDAY
FORECASTED MAX TEMP AT RENO (DEG F).....     64          59
FORECASTED TRIGGER TEMPERATURE (DEG F)..     48          46
   EXCEEDED YESTERDAY BY 955 AM PDT
FORECASTED MAXIMUM ALTITUDE (FT MSL)....  17900       13500
FORECASTED SOARING INDEX (FPM)..........   1017         645
FORECASTED K-INDEX.........VALID 18Z....     24          23
FORECASTED K-INDEX.........VALID 00Z....     24          29
FORECASTED LIFTED INDEX....VALID 18Z....      2           4
FORECASTED LIFTED INDEX....VALID 00Z....      4           1

AFTERNOON WINDS ALOFT FORECAST
MSL (FT) WIND/TEMP
9000  3515/+02
10000 3513/+00
12000 3614/-06
14000 3614/-10
16000 3612/-14
18000 0111/-18
24000 3412/-33
30000 3622/-49
34000 3639/-53
39000 3436/-54

SLIDE MOUNTAIN DATA:
     DATE       TIME     TEMP  DEWPT   RH         WIND (MPH)
                        (F)   (F)           | DIR  SPEED GUST
2016-04-28    05:50      24    23     97    | 027    8   13
2016-04-28    05:30      24    23     97    | 028    8   13
2016-04-28    05:20      24    23     97    | 020    8   13
2016-04-28    05:00      24    23     97    | 011    8   11

RENO TAF FORECAST:
KRNO 281126Z 2812/2912 33009KT P6SM SCT030 BKN090
     FM282000 35011G18KT P6SM VCSH BKN060
     FM290200 VRB03KT P6SM SCT030

CARSON CITY TAF FORECAST:
KCXP 281126Z 2812/2912 34009KT P6SM BKN025 BKN060
     FM282100 01011G18KT P6SM VCSH BKN060
     FM290300 VRB03KT P6SM SCT030

OUTLOOK FOR THE RENO-CARSON CITY-MINDEN AREA:
.FRIDAY...PARTLY CLOUDY IN THE MORNING THEN BECOMING MOSTLY
CLOUDY. HIGHS 67 TO 72. LIGHT WINDS BECOMING WEST AROUND 10 MPH
IN THE AFTERNOON.

SUNRISE AND SUNSET
APRIL 28 2016.........SUNRISE   603 AM PDT   SUNSET   750 PM PDT
APRIL 29 2016.........SUNRISE   602 AM PDT   SUNSET   751 PM PDT



USA.gov is the U.S. government's official web portal to all federal, state and local government web resources and services.